sensor_id;sensor_type;location;lat;lon;timestamp;temperature;humidity
7654;DHT22;3869;48.406;10.774;2022-11-14T00:01:11;5.40;99.90
7654;DHT22;3869;48.406;10.774;2022-11-14T00:03:39;5.40;99.90
7654;DHT22;3869;48.406;10.774;2022-11-14T00:06:09;5.40;99.90
7654;DHT22;3869;48.406;10.774;2022-11-14T00:08:37;5.40;99.90
7654;DHT22;3869;48.406;10.774;2022-11-14T00:11:05;5.50;99.90
7654;DHT22;3869;48.406;10.774;2022-11-14T00:13:34;5.50;99.90
7654;DHT22;3869;48.406;10.774;2022-11-14T00:16:02;5.50;99.90
7654;DHT22;3869;48.406;10.774;2022-11-14T00:18:30;5.40;99.90
7654;DHT22;3869;48.406;10.774;2022-11-14T00:20:58;5.40;99.90
7654;DHT22;3869;48.406;10.774;2022-11-14T00:23:28;5.40;99.90
7654;DHT22;3869;48.406;10.774;2022-11-14T00:25:56;5.40;99.90
7654;DHT22;3869;48.406;10.774;2022-11-14T00:28:23;5.40;99.90
7654;DHT22;3869;48.406;10.774;2022-11-14T00:30:52;5.40;99.90
7654;DHT22;3869;48.406;10.774;2022-11-14T00:33:19;5.30;99.90
7654;DHT22;3869;48.406;10.774;2022-11-14T00:35:51;5.40;99.90
7654;DHT22;3869;48.406;10.774;2022-11-14T00:38:20;5.40;99.90
7654;DHT22;3869;48.406;10.774;2022-11-14T00:40:49;5.30;99.90
7654;DHT22;3869;48.406;10.774;2022-11-14T00:43:17;5.30;99.90
7654;DHT22;3869;48.406;10.774;2022-11-14T00:45:46;5.30;99.90
7654;DHT22;3869;48.406;10.774;2022-11-14T00:48:14;5.30;99.90
7654;DHT22;3869;48.406;10.774;2022-11-14T00:50:43;5.30;99.90
7654;DHT22;3869;48.406;10.774;2022-11-14T00:53:11;5.30;99.90
7654;DHT22;3869;48.406;10.774;2022-11-14T00:55:40;5.20;99.90
7654;DHT22;3869;48.406;10.774;2022-11-14T00:58:10;5.30;99.90
7654;DHT22;3869;48.406;10.774;2022-11-14T01:00:38;5.30;99.90
7654;DHT22;3869;48.406;10.774;2022-11-14T01:03:06;5.30;99.90
7654;DHT22;3869;48.406;10.774;2022-11-14T01:05:39;5.30;99.90
7654;DHT22;3869;48.406;10.774;2022-11-14T01:08:07;5.30;99.90
7654;DHT22;3869;48.406;10.774;2022-11-14T01:10:38;5.30;99.90
7654;DHT22;3869;48.406;10.774;2022-11-14T01:13:06;5.30;99.90
7654;DHT22;3869;48.406;10.774;2022-11-14T01:15:39;5.30;99.90
7654;DHT22;3869;48.406;10.774;2022-11-14T01:18:08;5.40;99.90
7654;DHT22;3869;48.406;10.774;2022-11-14T01:20:37;5.40;99.90
7654;DHT22;3869;48.406;10.774;2022-11-14T01:23:06;5.50;99.90
7654;DHT22;3869;48.406;10.774;2022-11-14T01:25:35;5.50;99.90
7654;DHT22;3869;48.406;10.774;2022-11-14T01:28:05;5.50;99.90
7654;DHT22;3869;48.406;10.774;2022-11-14T01:30:33;5.50;99.90
7654;DHT22;3869;48.406;10.774;2022-11-14T01:33:03;5.50;99.90
7654;DHT22;3869;48.406;10.774;2022-11-14T01:35:32;5.60;99.90
7654;DHT22;3869;48.406;10.774;2022-11-14T01:38:01;5.60;99.90
7654;DHT22;3869;48.406;10.774;2022-11-14T01:40:29;5.60;99.90
7654;DHT22;3869;48.406;10.774;2022-11-14T01:43:26;5.60;99.90
7654;DHT22;3869;48.406;10.774;2022-11-14T01:45:57;5.60;99.90
7654;DHT22;3869;48.406;10.774;2022-11-14T01:48:34;5.60;99.90
7654;DHT22;3869;48.406;10.774;2022-11-14T01:51:16;5.60;99.90
7654;DHT22;3869;48.406;10.774;2022-11-14T01:53:45;5.60;99.90
7654;DHT22;3869;48.406;10.774;2022-11-14T01:56:16;5.60;99.90
7654;DHT22;3869;48.406;10.774;2022-11-14T01:58:49;5.60;99.90
7654;DHT22;3869;48.406;10.774;2022-11-14T02:01:18;5.70;99.90
7654;DHT22;3869;48.406;10.774;2022-11-14T02:03:50;5.60;99.90
7654;DHT22;3869;48.406;10.774;2022-11-14T02:06:21;5.70;99.90
7654;DHT22;3869;48.406;10.774;2022-11-14T02:08:50;5.60;99.90
7654;DHT22;3869;48.406;10.774;2022-11-14T02:11:19;5.60;99.90
7654;DHT22;3869;48.406;10.774;2022-11-14T02:13:47;5.60;99.90
7654;DHT22;3869;48.406;10.774;2022-11-14T02:16:15;5.60;99.90
7654;DHT22;3869;48.406;10.774;2022-11-14T02:18:43;5.50;99.90
7654;DHT22;3869;48.406;10.774;2022-11-14T02:21:12;5.50;99.90
7654;DHT22;3869;48.406;10.774;2022-11-14T02:23:40;5.50;99.90
7654;DHT22;3869;48.406;10.774;2022-11-14T02:26:08;5.50;99.90
7654;DHT22;3869;48.406;10.774;2022-11-14T02:28:36;5.50;99.90
7654;DHT22;3869;48.406;10.774;2022-11-14T02:31:04;5.50;99.90
7654;DHT22;3869;48.406;10.774;2022-11-14T02:33:32;5.60;99.90
7654;DHT22;3869;48.406;10.774;2022-11-14T02:36:00;5.50;99.90
7654;DHT22;3869;48.406;10.774;2022-11-14T02:38:29;5.50;99.90
7654;DHT22;3869;48.406;10.774;2022-11-14T02:40:59;5.40;99.90
7654;DHT22;3869;48.406;10.774;2022-11-14T02:43:27;5.40;99.90
7654;DHT22;3869;48.406;10.774;2022-11-14T02:45:55;5.40;99.90
7654;DHT22;3869;48.406;10.774;2022-11-14T02:48:30;5.40;99.90
7654;DHT22;3869;48.406;10.774;2022-11-14T02:50:59;5.40;99.90
7654;DHT22;3869;48.406;10.774;2022-11-14T02:53:26;5.40;99.90
7654;DHT22;3869;48.406;10.774;2022-11-14T02:55:56;5.40;99.90
7654;DHT22;3869;48.406;10.774;2022-11-14T02:58:24;5.40;99.90
7654;DHT22;3869;48.406;10.774;2022-11-14T03:00:52;5.30;99.90
7654;DHT22;3869;48.406;10.774;2022-11-14T03:03:40;5.30;99.90
7654;DHT22;3869;48.406;10.774;2022-11-14T03:06:08;5.30;99.90
7654;DHT22;3869;48.406;10.774;2022-11-14T03:08:36;5.40;99.90
7654;DHT22;3869;48.406;10.774;2022-11-14T03:11:06;5.40;99.90
7654;DHT22;3869;48.406;10.774;2022-11-14T03:13:35;5.40;99.90
7654;DHT22;3869;48.406;10.774;2022-11-14T03:16:04;5.40;99.90
7654;DHT22;3869;48.406;10.774;2022-11-14T03:18:33;5.50;99.90
7654;DHT22;3869;48.406;10.774;2022-11-14T03:21:06;5.50;99.90
7654;DHT22;3869;48.406;10.774;2022-11-14T03:23:34;5.60;99.90
7654;DHT22;3869;48.406;10.774;2022-11-14T03:26:05;5.60;99.90
7654;DHT22;3869;48.406;10.774;2022-11-14T03:28:33;5.60;99.90
7654;DHT22;3869;48.406;10.774;2022-11-14T03:31:02;5.60;99.90
7654;DHT22;3869;48.406;10.774;2022-11-14T03:33:30;5.60;99.90
7654;DHT22;3869;48.406;10.774;2022-11-14T03:35:58;5.60;99.90
7654;DHT22;3869;48.406;10.774;2022-11-14T03:38:26;5.60;99.90
7654;DHT22;3869;48.406;10.774;2022-11-14T03:40:56;5.60;99.90
7654;DHT22;3869;48.406;10.774;2022-11-14T03:43:30;5.60;99.90
7654;DHT22;3869;48.406;10.774;2022-11-14T03:45:58;5.60;99.90
7654;DHT22;3869;48.406;10.774;2022-11-14T03:48:27;5.60;99.90
7654;DHT22;3869;48.406;10.774;2022-11-14T03:50:56;5.70;99.90
7654;DHT22;3869;48.406;10.774;2022-11-14T03:53:24;5.70;99.90
7654;DHT22;3869;48.406;10.774;2022-11-14T03:55:54;5.70;99.90
7654;DHT22;3869;48.406;10.774;2022-11-14T03:58:22;5.70;99.90
7654;DHT22;3869;48.406;10.774;2022-11-14T04:00:51;5.70;99.90
7654;DHT22;3869;48.406;10.774;2022-11-14T04:03:21;5.70;99.90
7654;DHT22;3869;48.406;10.774;2022-11-14T04:05:49;5.70;99.90
7654;DHT22;3869;48.406;10.774;2022-11-14T04:08:18;5.70;99.90
7654;DHT22;3869;48.406;10.774;2022-11-14T04:10:46;5.70;99.90
7654;DHT22;3869;48.406;10.774;2022-11-14T04:13:14;5.70;99.90
7654;DHT22;3869;48.406;10.774;2022-11-14T04:15:42;5.70;99.90
7654;DHT22;3869;48.406;10.774;2022-11-14T04:18:12;5.70;99.90
7654;DHT22;3869;48.406;10.774;2022-11-14T04:20:40;5.70;99.90
7654;DHT22;3869;48.406;10.774;2022-11-14T04:23:07;5.70;99.90
7654;DHT22;3869;48.406;10.774;2022-11-14T04:25:35;5.70;99.90
7654;DHT22;3869;48.406;10.774;2022-11-14T04:28:04;5.70;99.90
7654;DHT22;3869;48.406;10.774;2022-11-14T04:30:31;5.70;99.90
7654;DHT22;3869;48.406;10.774;2022-11-14T04:33:00;5.70;99.90
7654;DHT22;3869;48.406;10.774;2022-11-14T04:35:30;5.70;99.90
7654;DHT22;3869;48.406;10.774;2022-11-14T04:37:58;5.70;99.90
7654;DHT22;3869;48.406;10.774;2022-11-14T04:40:26;5.70;99.90
7654;DHT22;3869;48.406;10.774;2022-11-14T04:42:54;5.70;99.90
7654;DHT22;3869;48.406;10.774;2022-11-14T04:45:22;5.60;99.90
7654;DHT22;3869;48.406;10.774;2022-11-14T04:47:50;5.60;99.90
7654;DHT22;3869;48.406;10.774;2022-11-14T04:50:18;5.60;99.90
7654;DHT22;3869;48.406;10.774;2022-11-14T04:52:50;5.60;99.90
7654;DHT22;3869;48.406;10.774;2022-11-14T04:55:18;5.60;99.90
7654;DHT22;3869;48.406;10.774;2022-11-14T04:57:46;5.60;99.90
7654;DHT22;3869;48.406;10.774;2022-11-14T05:00:15;5.70;99.90
7654;DHT22;3869;48.406;10.774;2022-11-14T05:02:43;5.60;99.90
7654;DHT22;3869;48.406;10.774;2022-11-14T05:05:11;5.60;99.90
7654;DHT22;3869;48.406;10.774;2022-11-14T05:07:38;5.60;99.90
7654;DHT22;3869;48.406;10.774;2022-11-14T05:10:09;5.50;99.90
7654;DHT22;3869;48.406;10.774;2022-11-14T05:12:37;5.50;99.90
7654;DHT22;3869;48.406;10.774;2022-11-14T05:15:06;5.50;99.90
7654;DHT22;3869;48.406;10.774;2022-11-14T05:17:34;5.50;99.90
7654;DHT22;3869;48.406;10.774;2022-11-14T05:20:02;5.50;99.90
7654;DHT22;3869;48.406;10.774;2022-11-14T05:22:30;5.50;99.90
7654;DHT22;3869;48.406;10.774;2022-11-14T05:24:58;5.40;99.90
7654;DHT22;3869;48.406;10.774;2022-11-14T05:27:28;5.30;99.90
7654;DHT22;3869;48.406;10.774;2022-11-14T05:29:56;5.20;99.90
7654;DHT22;3869;48.406;10.774;2022-11-14T05:32:24;5.30;99.90
7654;DHT22;3869;48.406;10.774;2022-11-14T05:34:52;5.30;99.90
7654;DHT22;3869;48.406;10.774;2022-11-14T05:37:20;5.30;99.90
7654;DHT22;3869;48.406;10.774;2022-11-14T05:39:47;5.40;99.90
7654;DHT22;3869;48.406;10.774;2022-11-14T05:42:15;5.40;99.90
7654;DHT22;3869;48.406;10.774;2022-11-14T05:44:45;5.50;99.90
7654;DHT22;3869;48.406;10.774;2022-11-14T05:47:13;5.40;99.90
7654;DHT22;3869;48.406;10.774;2022-11-14T05:49:41;5.30;99.90
7654;DHT22;3869;48.406;10.774;2022-11-14T05:52:09;5.20;99.90
7654;DHT22;3869;48.406;10.774;2022-11-14T05:54:37;5.30;99.90
7654;DHT22;3869;48.406;10.774;2022-11-14T05:57:05;5.20;99.90
7654;DHT22;3869;48.406;10.774;2022-11-14T05:59:33;5.20;99.90
7654;DHT22;3869;48.406;10.774;2022-11-14T06:02:02;5.20;99.90
7654;DHT22;3869;48.406;10.774;2022-11-14T06:04:30;5.20;99.90
7654;DHT22;3869;48.406;10.774;2022-11-14T06:06:58;5.20;99.90
7654;DHT22;3869;48.406;10.774;2022-11-14T06:09:26;5.20;99.90
7654;DHT22;3869;48.406;10.774;2022-11-14T06:11:54;5.30;99.90
7654;DHT22;3869;48.406;10.774;2022-11-14T06:14:22;5.20;99.90
7654;DHT22;3869;48.406;10.774;2022-11-14T06:16:50;5.20;99.90
7654;DHT22;3869;48.406;10.774;2022-11-14T06:19:19;5.20;99.90
7654;DHT22;3869;48.406;10.774;2022-11-14T06:21:48;5.20;99.90
7654;DHT22;3869;48.406;10.774;2022-11-14T06:24:16;5.20;99.90
7654;DHT22;3869;48.406;10.774;2022-11-14T06:26:44;5.20;99.90
7654;DHT22;3869;48.406;10.774;2022-11-14T06:29:12;5.30;99.90
7654;DHT22;3869;48.406;10.774;2022-11-14T06:31:40;5.20;99.90
7654;DHT22;3869;48.406;10.774;2022-11-14T06:34:10;5.20;99.90
7654;DHT22;3869;48.406;10.774;2022-11-14T06:36:39;5.20;99.90
7654;DHT22;3869;48.406;10.774;2022-11-14T06:39:07;5.20;99.90
7654;DHT22;3869;48.406;10.774;2022-11-14T06:41:35;5.20;99.90
7654;DHT22;3869;48.406;10.774;2022-11-14T06:44:03;5.10;99.90
7654;DHT22;3869;48.406;10.774;2022-11-14T06:46:33;5.00;99.90
7654;DHT22;3869;48.406;10.774;2022-11-14T06:49:01;4.90;99.90
7654;DHT22;3869;48.406;10.774;2022-11-14T06:51:29;4.90;99.90
7654;DHT22;3869;48.406;10.774;2022-11-14T06:53:59;4.90;99.90
7654;DHT22;3869;48.406;10.774;2022-11-14T06:56:27;4.90;99.90
7654;DHT22;3869;48.406;10.774;2022-11-14T06:58:55;4.90;99.90
7654;DHT22;3869;48.406;10.774;2022-11-14T07:01:24;4.90;99.90
7654;DHT22;3869;48.406;10.774;2022-11-14T07:03:53;4.80;99.90
7654;DHT22;3869;48.406;10.774;2022-11-14T07:06:23;4.80;99.90
7654;DHT22;3869;48.406;10.774;2022-11-14T07:08:52;4.80;99.90
7654;DHT22;3869;48.406;10.774;2022-11-14T07:11:24;4.90;99.90
7654;DHT22;3869;48.406;10.774;2022-11-14T07:13:56;5.00;99.90
7654;DHT22;3869;48.406;10.774;2022-11-14T07:16:26;5.10;99.90
7654;DHT22;3869;48.406;10.774;2022-11-14T07:18:55;5.10;99.90
7654;DHT22;3869;48.406;10.774;2022-11-14T07:21:24;5.10;99.90
7654;DHT22;3869;48.406;10.774;2022-11-14T07:23:52;5.10;99.90
7654;DHT22;3869;48.406;10.774;2022-11-14T07:26:22;5.20;99.90
7654;DHT22;3869;48.406;10.774;2022-11-14T07:28:50;5.20;99.90
7654;DHT22;3869;48.406;10.774;2022-11-14T07:31:24;5.10;99.90
7654;DHT22;3869;48.406;10.774;2022-11-14T07:33:53;5.00;99.90
7654;DHT22;3869;48.406;10.774;2022-11-14T07:36:22;4.90;99.90
7654;DHT22;3869;48.406;10.774;2022-11-14T07:38:50;4.90;99.90
7654;DHT22;3869;48.406;10.774;2022-11-14T07:41:18;4.90;99.90
7654;DHT22;3869;48.406;10.774;2022-11-14T07:43:47;5.00;99.90
7654;DHT22;3869;48.406;10.774;2022-11-14T07:46:16;5.00;99.90
7654;DHT22;3869;48.406;10.774;2022-11-14T07:48:44;5.00;99.90
7654;DHT22;3869;48.406;10.774;2022-11-14T07:51:14;5.10;99.90
7654;DHT22;3869;48.406;10.774;2022-11-14T07:53:42;5.10;99.90
7654;DHT22;3869;48.406;10.774;2022-11-14T07:56:11;5.20;99.90
7654;DHT22;3869;48.406;10.774;2022-11-14T07:58:40;5.30;99.90
7654;DHT22;3869;48.406;10.774;2022-11-14T08:01:11;5.30;99.90
7654;DHT22;3869;48.406;10.774;2022-11-14T08:03:40;5.40;99.90
7654;DHT22;3869;48.406;10.774;2022-11-14T08:06:13;5.40;99.90
7654;DHT22;3869;48.406;10.774;2022-11-14T08:08:41;5.40;99.90
7654;DHT22;3869;48.406;10.774;2022-11-14T08:11:09;5.50;99.90
7654;DHT22;3869;48.406;10.774;2022-11-14T08:13:38;5.60;99.90
7654;DHT22;3869;48.406;10.774;2022-11-14T08:16:07;5.60;99.90
7654;DHT22;3869;48.406;10.774;2022-11-14T08:18:41;5.80;99.90
7654;DHT22;3869;48.406;10.774;2022-11-14T08:21:09;5.80;99.90
7654;DHT22;3869;48.406;10.774;2022-11-14T08:23:37;5.90;99.90
7654;DHT22;3869;48.406;10.774;2022-11-14T08:26:05;5.90;99.90
7654;DHT22;3869;48.406;10.774;2022-11-14T08:28:33;5.90;99.90
7654;DHT22;3869;48.406;10.774;2022-11-14T08:31:02;6.00;99.90
7654;DHT22;3869;48.406;10.774;2022-11-14T08:33:30;6.00;99.90
7654;DHT22;3869;48.406;10.774;2022-11-14T08:36:01;6.00;99.90
7654;DHT22;3869;48.406;10.774;2022-11-14T08:38:30;6.10;99.90
7654;DHT22;3869;48.406;10.774;2022-11-14T08:40:59;6.20;99.90
7654;DHT22;3869;48.406;10.774;2022-11-14T08:43:28;6.30;99.90
7654;DHT22;3869;48.406;10.774;2022-11-14T08:45:57;6.30;99.90
7654;DHT22;3869;48.406;10.774;2022-11-14T08:48:28;6.30;99.90
7654;DHT22;3869;48.406;10.774;2022-11-14T08:50:57;6.30;99.90
7654;DHT22;3869;48.406;10.774;2022-11-14T08:53:26;6.40;99.90
7654;DHT22;3869;48.406;10.774;2022-11-14T08:55:54;6.50;99.90
7654;DHT22;3869;48.406;10.774;2022-11-14T08:58:22;6.60;99.90
7654;DHT22;3869;48.406;10.774;2022-11-14T09:00:50;6.60;99.90
7654;DHT22;3869;48.406;10.774;2022-11-14T09:03:18;6.60;99.90
7654;DHT22;3869;48.406;10.774;2022-11-14T09:05:50;6.70;99.90
7654;DHT22;3869;48.406;10.774;2022-11-14T09:08:19;6.70;99.90
7654;DHT22;3869;48.406;10.774;2022-11-14T09:10:49;6.60;99.90
7654;DHT22;3869;48.406;10.774;2022-11-14T09:13:17;6.50;99.90
7654;DHT22;3869;48.406;10.774;2022-11-14T09:15:45;6.40;99.90
7654;DHT22;3869;48.406;10.774;2022-11-14T09:18:13;6.40;99.90
7654;DHT22;3869;48.406;10.774;2022-11-14T09:20:41;6.30;99.90
7654;DHT22;3869;48.406;10.774;2022-11-14T09:23:10;6.30;99.90
7654;DHT22;3869;48.406;10.774;2022-11-14T09:25:38;6.30;99.90
7654;DHT22;3869;48.406;10.774;2022-11-14T09:28:08;6.30;99.90
7654;DHT22;3869;48.406;10.774;2022-11-14T09:30:36;6.30;99.90
7654;DHT22;3869;48.406;10.774;2022-11-14T09:33:05;6.20;99.90
7654;DHT22;3869;48.406;10.774;2022-11-14T09:35:37;6.20;99.90
7654;DHT22;3869;48.406;10.774;2022-11-14T09:38:07;6.20;99.90
7654;DHT22;3869;48.406;10.774;2022-11-14T09:40:45;6.20;99.90
7654;DHT22;3869;48.406;10.774;2022-11-14T09:43:37;6.20;99.90
7654;DHT22;3869;48.406;10.774;2022-11-14T09:46:17;6.30;99.90
7654;DHT22;3869;48.406;10.774;2022-11-14T09:48:46;6.30;99.90
7654;DHT22;3869;48.406;10.774;2022-11-14T09:51:17;6.40;99.90
7654;DHT22;3869;48.406;10.774;2022-11-14T09:53:50;6.40;99.90
7654;DHT22;3869;48.406;10.774;2022-11-14T09:56:22;6.40;99.90
7654;DHT22;3869;48.406;10.774;2022-11-14T09:58:53;6.50;99.90
7654;DHT22;3869;48.406;10.774;2022-11-14T10:01:31;6.50;99.90
7654;DHT22;3869;48.406;10.774;2022-11-14T10:04:07;6.60;99.90
7654;DHT22;3869;48.406;10.774;2022-11-14T10:06:44;6.70;99.90
7654;DHT22;3869;48.406;10.774;2022-11-14T10:09:42;6.70;99.90
7654;DHT22;3869;48.406;10.774;2022-11-14T10:12:19;6.80;99.90
7654;DHT22;3869;48.406;10.774;2022-11-14T10:15:00;6.90;99.90
7654;DHT22;3869;48.406;10.774;2022-11-14T10:17:53;7.00;99.90
7654;DHT22;3869;48.406;10.774;2022-11-14T10:20:31;7.00;99.90
7654;DHT22;3869;48.406;10.774;2022-11-14T10:23:07;7.10;99.90
7654;DHT22;3869;48.406;10.774;2022-11-14T10:25:48;7.20;99.90
7654;DHT22;3869;48.406;10.774;2022-11-14T10:28:32;7.40;99.90
7654;DHT22;3869;48.406;10.774;2022-11-14T10:31:17;7.50;99.90
7654;DHT22;3869;48.406;10.774;2022-11-14T10:33:53;7.60;99.90
7654;DHT22;3869;48.406;10.774;2022-11-14T10:36:40;7.80;99.90
7654;DHT22;3869;48.406;10.774;2022-11-14T10:39:14;7.90;99.90
7654;DHT22;3869;48.406;10.774;2022-11-14T10:41:45;8.00;99.90
7654;DHT22;3869;48.406;10.774;2022-11-14T10:44:30;8.10;99.90
7654;DHT22;3869;48.406;10.774;2022-11-14T10:47:03;8.20;99.90
7654;DHT22;3869;48.406;10.774;2022-11-14T10:49:34;8.30;99.90
7654;DHT22;3869;48.406;10.774;2022-11-14T10:52:08;8.40;99.90
7654;DHT22;3869;48.406;10.774;2022-11-14T10:54:41;8.50;99.90
7654;DHT22;3869;48.406;10.774;2022-11-14T10:57:15;8.60;99.90
7654;DHT22;3869;48.406;10.774;2022-11-14T10:59:43;8.70;99.90
7654;DHT22;3869;48.406;10.774;2022-11-14T11:02:14;8.70;99.90
7654;DHT22;3869;48.406;10.774;2022-11-14T11:04:43;8.80;99.90
7654;DHT22;3869;48.406;10.774;2022-11-14T11:07:21;8.90;99.90
7654;DHT22;3869;48.406;10.774;2022-11-14T11:10:19;9.00;99.90
7654;DHT22;3869;48.406;10.774;2022-11-14T11:13:05;9.10;99.90
7654;DHT22;3869;48.406;10.774;2022-11-14T11:15:40;9.10;99.90
7654;DHT22;3869;48.406;10.774;2022-11-14T11:18:27;9.20;99.90
7654;DHT22;3869;48.406;10.774;2022-11-14T11:21:06;9.20;99.90
7654;DHT22;3869;48.406;10.774;2022-11-14T11:23:34;9.30;99.90
7654;DHT22;3869;48.406;10.774;2022-11-14T11:26:05;9.40;99.90
7654;DHT22;3869;48.406;10.774;2022-11-14T11:28:35;9.50;99.90
7654;DHT22;3869;48.406;10.774;2022-11-14T11:31:06;9.60;99.90
7654;DHT22;3869;48.406;10.774;2022-11-14T11:33:37;9.60;99.90
7654;DHT22;3869;48.406;10.774;2022-11-14T11:36:12;9.70;99.90
7654;DHT22;3869;48.406;10.774;2022-11-14T11:38:41;9.80;99.90
7654;DHT22;3869;48.406;10.774;2022-11-14T11:41:16;9.80;99.90
7654;DHT22;3869;48.406;10.774;2022-11-14T11:44:09;9.90;99.90
7654;DHT22;3869;48.406;10.774;2022-11-14T11:46:44;10.10;99.90
7654;DHT22;3869;48.406;10.774;2022-11-14T11:49:18;10.30;99.90
7654;DHT22;3869;48.406;10.774;2022-11-14T11:51:52;10.40;99.90
7654;DHT22;3869;48.406;10.774;2022-11-14T11:54:25;10.50;99.90
7654;DHT22;3869;48.406;10.774;2022-11-14T11:56:58;10.60;99.90
7654;DHT22;3869;48.406;10.774;2022-11-14T11:59:32;10.80;99.90
7654;DHT22;3869;48.406;10.774;2022-11-14T12:02:18;10.80;99.90
7654;DHT22;3869;48.406;10.774;2022-11-14T12:04:50;10.90;99.90
7654;DHT22;3869;48.406;10.774;2022-11-14T12:07:21;11.00;99.90
7654;DHT22;3869;48.406;10.774;2022-11-14T12:09:51;11.00;99.90
7654;DHT22;3869;48.406;10.774;2022-11-14T12:12:51;11.00;99.90
7654;DHT22;3869;48.406;10.774;2022-11-14T12:15:27;11.10;99.90
7654;DHT22;3869;48.406;10.774;2022-11-14T12:18:17;11.20;99.90
7654;DHT22;3869;48.406;10.774;2022-11-14T12:21:12;11.20;99.90
7654;DHT22;3869;48.406;10.774;2022-11-14T12:27:03;11.30;99.90
7654;DHT22;3869;48.406;10.774;2022-11-14T12:29:47;11.40;99.90
7654;DHT22;3869;48.406;10.774;2022-11-14T12:32:21;11.40;99.90
7654;DHT22;3869;48.406;10.774;2022-11-14T12:34:54;11.50;99.90
7654;DHT22;3869;48.406;10.774;2022-11-14T12:37:29;11.50;99.90
7654;DHT22;3869;48.406;10.774;2022-11-14T12:40:00;11.60;99.90
7654;DHT22;3869;48.406;10.774;2022-11-14T12:42:30;11.60;99.90
7654;DHT22;3869;48.406;10.774;2022-11-14T12:44:59;11.60;99.90
7654;DHT22;3869;48.406;10.774;2022-11-14T12:47:27;11.60;99.90
7654;DHT22;3869;48.406;10.774;2022-11-14T12:50:03;11.60;99.90
7654;DHT22;3869;48.406;10.774;2022-11-14T12:52:45;11.50;99.90
7654;DHT22;3869;48.406;10.774;2022-11-14T12:55:52;11.40;99.90
7654;DHT22;3869;48.406;10.774;2022-11-14T12:58:48;11.30;99.90
7654;DHT22;3869;48.406;10.774;2022-11-14T13:01:31;11.20;99.90
7654;DHT22;3869;48.406;10.774;2022-11-14T13:04:21;11.00;99.90
7654;DHT22;3869;48.406;10.774;2022-11-14T13:07:02;10.90;99.90
7654;DHT22;3869;48.406;10.774;2022-11-14T13:09:52;10.90;99.90
7654;DHT22;3869;48.406;10.774;2022-11-14T13:12:31;10.90;99.90
7654;DHT22;3869;48.406;10.774;2022-11-14T13:15:23;10.90;99.90
7654;DHT22;3869;48.406;10.774;2022-11-14T13:18:19;10.90;99.90
7654;DHT22;3869;48.406;10.774;2022-11-14T13:21:16;10.90;99.90
7654;DHT22;3869;48.406;10.774;2022-11-14T13:24:07;11.00;99.90
7654;DHT22;3869;48.406;10.774;2022-11-14T13:26:42;11.00;99.90
7654;DHT22;3869;48.406;10.774;2022-11-14T13:35:48;10.90;99.90
7654;DHT22;3869;48.406;10.774;2022-11-14T13:42:02;10.90;99.90
7654;DHT22;3869;48.406;10.774;2022-11-14T13:44:55;10.90;99.90
7654;DHT22;3869;48.406;10.774;2022-11-14T13:47:47;11.00;99.90
7654;DHT22;3869;48.406;10.774;2022-11-14T13:50:24;10.90;99.90
7654;DHT22;3869;48.406;10.774;2022-11-14T13:52:52;10.90;99.90
7654;DHT22;3869;48.406;10.774;2022-11-14T13:55:22;10.90;99.90
7654;DHT22;3869;48.406;10.774;2022-11-14T13:58:04;10.90;99.90
7654;DHT22;3869;48.406;10.774;2022-11-14T14:00:52;10.90;99.90
7654;DHT22;3869;48.406;10.774;2022-11-14T14:03:39;10.80;99.90
7654;DHT22;3869;48.406;10.774;2022-11-14T14:06:39;10.80;99.90
7654;DHT22;3869;48.406;10.774;2022-11-14T14:09:16;10.80;99.90
7654;DHT22;3869;48.406;10.774;2022-11-14T14:11:59;10.80;99.90
7654;DHT22;3869;48.406;10.774;2022-11-14T14:14:48;10.70;99.90
7654;DHT22;3869;48.406;10.774;2022-11-14T14:17:22;10.70;99.90
7654;DHT22;3869;48.406;10.774;2022-11-14T14:20:04;10.70;99.90
7654;DHT22;3869;48.406;10.774;2022-11-14T14:22:39;10.80;99.90
7654;DHT22;3869;48.406;10.774;2022-11-14T14:25:17;10.80;99.90
7654;DHT22;3869;48.406;10.774;2022-11-14T14:27:54;10.80;99.90
7654;DHT22;3869;48.406;10.774;2022-11-14T14:30:27;10.80;99.90
7654;DHT22;3869;48.406;10.774;2022-11-14T14:33:09;10.80;99.90
7654;DHT22;3869;48.406;10.774;2022-11-14T14:35:38;10.80;99.90
7654;DHT22;3869;48.406;10.774;2022-11-14T14:38:22;10.80;99.90
7654;DHT22;3869;48.406;10.774;2022-11-14T14:40:52;10.80;99.90
7654;DHT22;3869;48.406;10.774;2022-11-14T14:43:24;10.80;99.90
7654;DHT22;3869;48.406;10.774;2022-11-14T14:45:56;10.80;99.90
7654;DHT22;3869;48.406;10.774;2022-11-14T14:48:27;10.80;99.90
7654;DHT22;3869;48.406;10.774;2022-11-14T14:50:58;10.80;99.90
7654;DHT22;3869;48.406;10.774;2022-11-14T14:53:30;10.70;99.90
7654;DHT22;3869;48.406;10.774;2022-11-14T14:56:00;10.70;99.90
7654;DHT22;3869;48.406;10.774;2022-11-14T14:58:29;10.70;99.90
7654;DHT22;3869;48.406;10.774;2022-11-14T15:01:02;10.70;99.90
7654;DHT22;3869;48.406;10.774;2022-11-14T15:03:35;10.70;99.90
7654;DHT22;3869;48.406;10.774;2022-11-14T15:06:05;10.70;99.90
7654;DHT22;3869;48.406;10.774;2022-11-14T15:08:44;10.70;99.90
7654;DHT22;3869;48.406;10.774;2022-11-14T15:11:13;10.70;99.90
7654;DHT22;3869;48.406;10.774;2022-11-14T15:13:42;10.70;99.90
7654;DHT22;3869;48.406;10.774;2022-11-14T15:16:12;10.70;99.90
7654;DHT22;3869;48.406;10.774;2022-11-14T15:18:40;10.70;99.90
7654;DHT22;3869;48.406;10.774;2022-11-14T15:21:11;10.70;99.90
7654;DHT22;3869;48.406;10.774;2022-11-14T15:23:40;10.70;99.90
7654;DHT22;3869;48.406;10.774;2022-11-14T15:26:16;10.70;99.90
7654;DHT22;3869;48.406;10.774;2022-11-14T15:28:44;10.60;99.90
7654;DHT22;3869;48.406;10.774;2022-11-14T15:31:18;10.60;99.90
7654;DHT22;3869;48.406;10.774;2022-11-14T15:34:00;10.60;99.90
7654;DHT22;3869;48.406;10.774;2022-11-14T15:36:28;10.60;99.90
7654;DHT22;3869;48.406;10.774;2022-11-14T15:38:58;10.50;99.90
7654;DHT22;3869;48.406;10.774;2022-11-14T15:41:27;10.50;99.90
7654;DHT22;3869;48.406;10.774;2022-11-14T15:43:56;10.40;99.90
7654;DHT22;3869;48.406;10.774;2022-11-14T15:46:39;10.40;99.90
7654;DHT22;3869;48.406;10.774;2022-11-14T15:49:09;10.40;99.90
7654;DHT22;3869;48.406;10.774;2022-11-14T15:51:44;10.30;99.90
7654;DHT22;3869;48.406;10.774;2022-11-14T15:54:25;10.30;99.90
7654;DHT22;3869;48.406;10.774;2022-11-14T15:56:55;10.20;99.90
7654;DHT22;3869;48.406;10.774;2022-11-14T15:59:23;10.10;99.90
7654;DHT22;3869;48.406;10.774;2022-11-14T16:01:56;9.90;99.90
7654;DHT22;3869;48.406;10.774;2022-11-14T16:04:28;9.90;99.90
7654;DHT22;3869;48.406;10.774;2022-11-14T16:06:57;9.80;99.90
7654;DHT22;3869;48.406;10.774;2022-11-14T16:09:25;9.80;99.90
7654;DHT22;3869;48.406;10.774;2022-11-14T16:11:53;9.70;99.90
7654;DHT22;3869;48.406;10.774;2022-11-14T16:14:21;9.70;99.90
7654;DHT22;3869;48.406;10.774;2022-11-14T16:16:49;9.60;99.90
7654;DHT22;3869;48.406;10.774;2022-11-14T16:19:19;9.50;99.90
7654;DHT22;3869;48.406;10.774;2022-11-14T16:21:47;9.40;99.90
7654;DHT22;3869;48.406;10.774;2022-11-14T16:24:17;9.40;99.90
7654;DHT22;3869;48.406;10.774;2022-11-14T16:26:45;9.20;99.90
7654;DHT22;3869;48.406;10.774;2022-11-14T16:29:13;9.20;99.90
7654;DHT22;3869;48.406;10.774;2022-11-14T16:31:42;9.10;99.90
7654;DHT22;3869;48.406;10.774;2022-11-14T16:34:15;9.00;99.90
7654;DHT22;3869;48.406;10.774;2022-11-14T16:36:46;8.90;99.90
7654;DHT22;3869;48.406;10.774;2022-11-14T16:39:14;8.80;99.90
7654;DHT22;3869;48.406;10.774;2022-11-14T16:41:42;8.80;99.90